Time;durP1;ratioP1;P1;durP2;ratioP2;P2;SDS_P1;SDS_P2;PMS_P1;PMS_P2;Temp;Humidity;BMP_temperature;BMP_pressure;BME280_temperature;BME280_humidity;BME280_pressure;Samples;Min_cycle;Max_cycle;Signal;HPM_P1;HPM_P2
2020/12/23 00:02:25;;;;;;;389.38;233.00;;;7.90;99.90;;;;;;5054702;28;20028;-76
2020/12/23 00:04:51;;;;;;;392.77;235.88;;;7.90;99.90;;;;;;5054264;28;20021;-75
2020/12/23 00:07:17;;;;;;;363.70;213.50;;;7.90;99.90;;;;;;5054449;28;20078;-75
2020/12/23 00:09:44;;;;;;;356.33;205.52;;;7.90;99.90;;;;;;5070037;28;20499;-75
2020/12/23 00:12:11;;;;;;;360.65;214.95;;;7.90;99.90;;;;;;5053364;28;20116;-75
2020/12/23 00:14:37;;;;;;;367.63;213.90;;;7.80;99.90;;;;;;5054065;28;20112;-75
2020/12/23 00:17:04;;;;;;;385.70;222.82;;;7.80;99.90;;;;;;5054043;28;20021;-75
2020/12/23 00:19:30;;;;;;;392.48;225.45;;;7.90;99.90;;;;;;5054148;28;20480;-75
2020/12/23 00:21:56;;;;;;;402.27;234.85;;;7.80;99.90;;;;;;5054009;28;20028;-75
2020/12/23 00:24:22;;;;;;;424.35;250.77;;;7.80;99.90;;;;;;5052508;28;20053;-75
2020/12/23 00:26:48;;;;;;;434.85;262.20;;;7.80;99.90;;;;;;5054146;28;20021;-76
2020/12/23 00:29:14;;;;;;;429.90;255.32;;;7.80;99.90;;;;;;5053822;28;20063;-75
2020/12/23 00:31:40;;;;;;;417.27;252.23;;;7.80;99.90;;;;;;5053943;28;20105;-75
2020/12/23 00:34:06;;;;;;;411.80;244.60;;;7.80;99.90;;;;;;5053775;28;20086;-75
2020/12/23 00:36:32;;;;;;;420.42;247.77;;;7.80;99.90;;;;;;5053801;28;20075;-75
2020/12/23 00:38:58;;;;;;;409.40;246.02;;;7.80;99.90;;;;;;5051163;28;20025;-75
2020/12/23 00:41:24;;;;;;;383.35;227.45;;;7.80;99.90;;;;;;5053870;28;20074;-75
2020/12/23 00:43:50;;;;;;;373.88;220.00;;;7.80;99.90;;;;;;5053459;28;20020;-75
2020/12/23 00:46:16;;;;;;;392.75;230.27;;;7.80;99.90;;;;;;5053745;28;20052;-76
2020/12/23 00:48:43;;;;;;;374.58;217.63;;;7.70;99.90;;;;;;5053531;28;20020;-75
2020/12/23 00:51:13;;;;;;;362.88;211.90;;;7.70;99.90;;;;;;5053546;28;20020;-74
2020/12/23 00:53:42;;;;;;;360.88;204.50;;;7.60;99.90;;;;;;5050654;28;20055;-75
2020/12/23 00:56:11;;;;;;;373.27;210.68;;;7.60;99.90;;;;;;5052961;28;20024;-75
2020/12/23 00:58:37;;;;;;;357.02;201.13;;;7.60;99.90;;;;;;5053001;28;20037;-75
2020/12/23 01:01:04;;;;;;;340.85;193.75;;;7.50;99.90;;;;;;5052972;28;20017;-75
2020/12/23 01:03:30;;;;;;;356.88;202.55;;;7.60;99.90;;;;;;5052346;28;20021;-75
2020/12/23 01:05:56;;;;;;;366.42;205.20;;;7.50;99.90;;;;;;5051963;28;20029;-75
2020/12/23 01:08:22;;;;;;;353.40;201.43;;;7.50;99.90;;;;;;5052926;28;20036;-75
2020/12/23 01:10:48;;;;;;;341.83;191.70;;;7.40;99.90;;;;;;5052912;28;20028;-75
2020/12/23 01:13:14;;;;;;;374.63;205.32;;;7.40;99.90;;;;;;5052762;28;20045;-75
2020/12/23 01:15:40;;;;;;;384.55;217.00;;;7.40;99.90;;;;;;5052799;28;20487;-75
2020/12/23 01:18:06;;;;;;;370.63;203.32;;;7.40;99.90;;;;;;5052855;28;20028;-75
2020/12/23 01:20:33;;;;;;;325.90;184.40;;;7.40;99.90;;;;;;5052578;28;20021;-75
2020/12/23 01:22:59;;;;;;;331.15;182.90;;;7.50;99.90;;;;;;5052673;28;20060;-75
2020/12/23 01:25:25;;;;;;;353.05;192.85;;;7.50;99.90;;;;;;5052578;28;20036;-75
2020/12/23 01:27:51;;;;;;;343.27;193.43;;;7.40;99.90;;;;;;5052766;28;20013;-75
2020/12/23 01:30:16;;;;;;;341.77;187.65;;;7.40;99.90;;;;;;5051283;28;20472;-75
2020/12/23 01:32:43;;;;;;;326.73;182.55;;;7.40;99.90;;;;;;5049777;28;20083;-75
2020/12/23 01:35:10;;;;;;;328.08;178.55;;;7.50;99.90;;;;;;5068300;28;20033;-75
2020/12/23 01:37:36;;;;;;;336.52;189.52;;;7.40;99.90;;;;;;5052892;28;20476;-75
2020/12/23 01:40:03;;;;;;;337.55;188.27;;;7.30;99.90;;;;;;5052758;28;20036;-75
2020/12/23 01:42:35;;;;;;;345.70;196.13;;;7.30;99.90;;;;;;5051444;28;20032;-75
2020/12/23 01:45:03;;;;;;;392.27;222.55;;;7.40;99.90;;;;;;5051190;28;20037;-75
2020/12/23 01:47:31;;;;;;;408.48;231.10;;;7.30;99.90;;;;;;5052842;28;20044;-75
2020/12/23 01:49:58;;;;;;;391.55;232.15;;;7.30;99.90;;;;;;5052435;28;20048;-75
2020/12/23 01:52:24;;;;;;;387.67;227.77;;;7.40;99.90;;;;;;5052529;28;20104;-75
2020/12/23 01:54:53;;;;;;;456.38;274.50;;;7.30;99.90;;;;;;5052472;28;20028;-75
2020/12/23 01:57:19;;;;;;;411.15;243.68;;;7.30;99.90;;;;;;5052774;28;20048;-75
2020/12/23 01:59:48;;;;;;;440.77;248.95;;;7.20;99.90;;;;;;5051147;28;20071;-75
2020/12/23 02:02:36;;;;;;;412.00;248.70;;;7.20;99.90;;;;;;5052263;28;20035;-75
2020/12/23 02:05:07;;;;;;;413.52;249.82;;;7.20;99.90;;;;;;5052378;28;20051;-75
2020/12/23 02:07:35;;;;;;;420.80;247.82;;;7.10;99.90;;;;;;5051658;28;20088;-75
2020/12/23 02:10:04;;;;;;;405.58;236.73;;;7.10;99.90;;;;;;5052388;28;20048;-75
2020/12/23 02:12:29;;;;;;;404.15;238.73;;;7.10;99.90;;;;;;5052635;28;20027;-75
2020/12/23 02:14:58;;;;;;;406.73;240.27;;;7.00;99.90;;;;;;5051115;28;20033;-75
2020/12/23 02:17:26;;;;;;;413.17;243.75;;;7.10;99.90;;;;;;5052582;28;20147;-75
2020/12/23 02:19:53;;;;;;;396.58;234.77;;;7.10;99.90;;;;;;5052513;28;20021;-75
2020/12/23 02:22:21;;;;;;;398.35;236.93;;;7.00;99.90;;;;;;5052355;28;20048;-75
2020/12/23 02:24:48;;;;;;;397.02;235.40;;;7.00;99.90;;;;;;5052228;28;20492;-75
2020/12/23 02:27:14;;;;;;;393.15;230.30;;;7.00;99.90;;;;;;5052173;28;20033;-75
2020/12/23 02:29:49;;;;;;;400.95;234.02;;;7.00;99.90;;;;;;5052247;28;20029;-75
2020/12/23 02:32:15;;;;;;;401.50;236.38;;;7.00;99.90;;;;;;5051952;28;20028;-75
2020/12/23 02:34:41;;;;;;;424.88;251.18;;;7.00;99.90;;;;;;5052095;28;20435;-76
2020/12/23 02:37:09;;;;;;;401.55;239.95;;;7.00;99.90;;;;;;5052036;28;20468;-75
2020/12/23 02:39:36;;;;;;;383.63;226.73;;;7.00;99.90;;;;;;5051776;28;20033;-75
2020/12/23 02:42:04;;;;;;;390.55;232.57;;;7.00;99.90;;;;;;5051947;28;20028;-75
2020/12/23 02:44:30;;;;;;;384.42;227.60;;;7.00;99.90;;;;;;5067142;28;20036;-75
2020/12/23 02:47:02;;;;;;;375.65;225.07;;;7.00;99.90;;;;;;5051775;28;20075;-75
2020/12/23 02:49:28;;;;;;;389.08;235.38;;;7.00;99.90;;;;;;5051762;28;20028;-76
2020/12/23 02:51:56;;;;;;;389.85;229.88;;;7.10;99.90;;;;;;5051885;28;20029;-75
2020/12/23 02:54:22;;;;;;;407.92;246.38;;;7.10;99.90;;;;;;5051549;28;20036;-75
2020/12/23 02:56:48;;;;;;;397.58;236.30;;;7.10;99.90;;;;;;5050389;28;20017;-75
2020/12/23 02:59:14;;;;;;;401.25;238.05;;;7.00;99.90;;;;;;5051463;28;20124;-75
2020/12/23 03:01:41;;;;;;;433.83;263.25;;;7.00;99.90;;;;;;5051502;28;20461;-75
2020/12/23 03:04:07;;;;;;;421.85;249.45;;;6.90;99.90;;;;;;5051519;28;20107;-75
2020/12/23 03:06:33;;;;;;;443.38;266.70;;;6.90;99.90;;;;;;5051412;28;20024;-75
2020/12/23 03:09:01;;;;;;;420.88;257.13;;;6.90;99.90;;;;;;5051308;28;20017;-75
2020/12/23 03:11:27;;;;;;;409.48;243.50;;;6.90;99.90;;;;;;5051461;28;20017;-75
2020/12/23 03:13:52;;;;;;;404.05;242.80;;;7.00;99.90;;;;;;5051489;28;20028;-75
2020/12/23 03:16:18;;;;;;;401.58;241.20;;;7.00;99.90;;;;;;5051304;28;20119;-75
2020/12/23 03:18:44;;;;;;;388.98;233.90;;;7.00;99.90;;;;;;5051203;28;20029;-75
2020/12/23 03:21:10;;;;;;;388.27;229.13;;;7.00;99.90;;;;;;5051220;28;20028;-76
2020/12/23 03:23:36;;;;;;;382.08;222.60;;;7.00;99.90;;;;;;5051049;28;20442;-76
2020/12/23 03:26:06;;;;;;;374.98;228.85;;;7.10;99.90;;;;;;5051334;28;20425;-75
2020/12/23 03:28:33;;;;;;;376.95;224.98;;;7.10;99.90;;;;;;5050897;28;20029;-75
2020/12/23 03:30:59;;;;;;;365.92;212.60;;;7.00;99.90;;;;;;5051430;28;20515;-76
2020/12/23 03:33:25;;;;;;;343.77;199.95;;;7.00;99.90;;;;;;5066678;28;20032;-75
2020/12/23 03:35:52;;;;;;;362.50;211.50;;;7.00;99.90;;;;;;5051121;28;20081;-76
2020/12/23 03:38:17;;;;;;;331.25;190.95;;;7.00;99.90;;;;;;5051320;28;20025;-76
2020/12/23 03:40:43;;;;;;;320.60;185.27;;;7.00;99.90;;;;;;5050227;28;20191;-76
2020/12/23 03:43:09;;;;;;;305.15;183.18;;;7.00;99.90;;;;;;5051586;28;20032;-75
2020/12/23 03:45:35;;;;;;;273.20;164.60;;;7.00;99.90;;;;;;5050035;28;20476;-75
2020/12/23 03:48:01;;;;;;;275.40;160.13;;;7.10;99.90;;;;;;5051334;28;20058;-76
2020/12/23 03:50:27;;;;;;;273.50;160.88;;;7.10;99.90;;;;;;5051255;28;20361;-75
2020/12/23 03:52:52;;;;;;;272.40;165.57;;;7.20;99.90;;;;;;5051271;28;20025;-76
2020/12/23 03:55:18;;;;;;;283.90;164.90;;;7.20;99.90;;;;;;5051304;28;20107;-75
2020/12/23 03:57:44;;;;;;;281.45;161.82;;;7.20;99.90;;;;;;5051159;28;20029;-76
2020/12/23 04:00:11;;;;;;;293.42;172.77;;;7.20;99.90;;;;;;5051116;28;20499;-75
2020/12/23 04:02:38;;;;;;;349.35;207.55;;;7.20;99.90;;;;;;5051208;28;20029;-75
2020/12/23 04:05:05;;;;;;;367.50;221.55;;;7.20;99.90;;;;;;5050864;28;20029;-75
2020/12/23 04:07:31;;;;;;;378.40;223.02;;;7.10;99.90;;;;;;5050995;28;20017;-75
2020/12/23 04:09:57;;;;;;;333.05;198.07;;;7.10;99.90;;;;;;5051193;28;20029;-75
2020/12/23 04:12:23;;;;;;;351.15;205.05;;;7.10;99.90;;;;;;5050936;28;20069;-75
2020/12/23 04:14:49;;;;;;;359.98;210.55;;;7.10;99.90;;;;;;5050854;28;20159;-76
2020/12/23 04:17:14;;;;;;;323.00;190.43;;;7.10;99.90;;;;;;5051168;28;20032;-76
2020/12/23 04:19:40;;;;;;;331.35;194.23;;;7.10;99.90;;;;;;5050981;28;20032;-76
2020/12/23 04:22:06;;;;;;;332.98;191.93;;;7.10;99.90;;;;;;5050571;28;20025;-76
2020/12/23 04:24:32;;;;;;;313.65;189.77;;;7.20;99.90;;;;;;5050662;28;20029;-75
2020/12/23 04:26:58;;;;;;;312.65;186.27;;;7.20;99.90;;;;;;5082865;28;20055;-75
2020/12/23 04:29:24;;;;;;;301.67;176.68;;;7.20;99.90;;;;;;5049100;28;20021;-75
2020/12/23 04:31:50;;;;;;;327.00;188.68;;;7.20;99.90;;;;;;5050651;28;20357;-75
2020/12/23 04:34:16;;;;;;;303.50;180.93;;;7.20;99.90;;;;;;5050740;28;20060;-75
2020/12/23 04:36:42;;;;;;;290.63;174.02;;;7.20;99.90;;;;;;5050703;28;20037;-75
2020/12/23 04:39:07;;;;;;;293.92;177.27;;;7.20;99.90;;;;;;5052158;28;20378;-75
2020/12/23 04:41:34;;;;;;;299.05;175.35;;;7.20;99.90;;;;;;5054414;28;20505;-76
2020/12/23 04:44:04;;;;;;;275.98;170.68;;;7.20;99.90;;;;;;5054401;28;20020;-76
2020/12/23 04:46:36;;;;;;;290.50;173.63;;;7.20;99.90;;;;;;5054567;28;20075;-76
2020/12/23 04:49:03;;;;;;;308.17;184.65;;;7.10;99.90;;;;;;5054342;28;20013;-75
2020/12/23 04:51:34;;;;;;;331.63;200.05;;;7.10;99.90;;;;;;5054304;28;20021;-76
2020/12/23 04:54:02;;;;;;;341.77;203.80;;;7.10;99.90;;;;;;5054286;28;20070;-76
2020/12/23 04:56:30;;;;;;;342.98;204.63;;;7.10;99.90;;;;;;5054431;28;20032;-76
2020/12/23 04:58:57;;;;;;;356.40;216.23;;;7.10;99.90;;;;;;5053934;28;20025;-76
2020/12/23 05:01:23;;;;;;;352.75;206.20;;;7.00;99.90;;;;;;5054153;28;20458;-76
2020/12/23 05:03:50;;;;;;;398.50;246.43;;;7.00;99.90;;;;;;5054044;28;20025;-75
2020/12/23 05:06:16;;;;;;;384.67;227.52;;;7.10;99.90;;;;;;5053696;28;20130;-75
2020/12/23 05:08:42;;;;;;;387.10;234.82;;;7.00;99.90;;;;;;5053841;28;20096;-75
2020/12/23 05:11:09;;;;;;;382.50;230.73;;;6.90;99.90;;;;;;5053720;28;20039;-75
2020/12/23 05:13:35;;;;;;;345.65;204.05;;;6.90;99.90;;;;;;5053698;28;20116;-75
2020/12/23 05:16:05;;;;;;;308.38;187.02;;;6.90;99.90;;;;;;5053483;28;20028;-75
2020/12/23 05:18:36;;;;;;;314.52;186.13;;;6.90;99.90;;;;;;5053592;28;20523;-75
2020/12/23 05:21:14;;;;;;;333.88;200.38;;;6.90;99.90;;;;;;5053402;28;20376;-75
2020/12/23 05:23:41;;;;;;;328.45;196.70;;;6.90;99.90;;;;;;5053261;28;20069;-75
2020/12/23 05:26:07;;;;;;;336.35;199.45;;;6.80;99.90;;;;;;5053217;28;20458;-75
2020/12/23 05:28:35;;;;;;;351.52;199.25;;;6.80;99.90;;;;;;5053427;28;20028;-75
2020/12/23 05:31:03;;;;;;;323.05;191.32;;;6.80;99.90;;;;;;5052094;28;20446;-76
2020/12/23 05:33:33;;;;;;;342.52;204.98;;;6.80;99.90;;;;;;5053254;28;20051;-75
2020/12/23 05:36:03;;;;;;;321.45;191.10;;;6.80;99.90;;;;;;5053184;28;20029;-75
2020/12/23 05:38:31;;;;;;;307.98;187.27;;;6.80;99.90;;;;;;5053185;28;20055;-76
2020/12/23 05:40:59;;;;;;;337.08;196.63;;;6.80;99.90;;;;;;5053326;28;20480;-76
2020/12/23 05:43:26;;;;;;;342.40;204.10;;;6.80;99.90;;;;;;5052013;28;20166;-76
2020/12/23 05:45:59;;;;;;;348.15;202.13;;;6.90;99.90;;;;;;5053352;28;20029;-76
2020/12/23 05:48:27;;;;;;;330.95;186.82;;;6.90;99.90;;;;;;5053581;28;20025;-77
2020/12/23 05:50:53;;;;;;;313.15;181.45;;;6.90;99.90;;;;;;5053440;28;20025;-77
2020/12/23 05:53:19;;;;;;;320.15;192.88;;;6.90;99.90;;;;;;5054233;28;20022;-77
2020/12/23 05:55:50;;;;;;;328.83;193.50;;;7.00;99.90;;;;;;5054210;28;20096;-77
2020/12/23 05:58:24;;;;;;;319.83;195.23;;;6.90;99.90;;;;;;5052820;28;20734;-77
2020/12/23 06:00:51;;;;;;;327.65;197.98;;;6.90;99.90;;;;;;5054027;28;20033;-77
2020/12/23 06:03:42;;;;;;;321.70;191.70;;;6.80;99.90;;;;;;5053886;28;20029;-76
2020/12/23 06:06:08;;;;;;;339.67;196.30;;;6.80;99.90;;;;;;5053948;28;20476;-77
2020/12/23 06:08:36;;;;;;;349.60;201.73;;;6.80;99.90;;;;;;5054248;28;20025;-77
2020/12/23 06:11:34;;;;;;;412.75;236.73;;;6.80;99.90;;;;;;5052655;28;20017;-77
2020/12/23 06:14:06;;;;;;;439.55;259.08;;;6.70;99.90;;;;;;5053926;28;20728;-76
2020/12/23 06:16:36;;;;;;;465.40;267.33;;;6.70;99.90;;;;;;5053358;28;20461;-76
2020/12/23 06:19:07;;;;;;;451.15;260.25;;;6.70;99.90;;;;;;5052793;28;20472;-75
2020/12/23 06:21:33;;;;;;;458.23;263.83;;;6.70;99.90;;;;;;5052340;28;20174;-75
2020/12/23 06:24:15;;;;;;;440.92;256.95;;;6.70;99.90;;;;;;5052219;28;20550;-76
2020/12/23 06:26:50;;;;;;;392.88;217.80;;;6.60;99.90;;;;;;5052185;28;20029;-75
2020/12/23 06:29:19;;;;;;;373.25;212.98;;;6.70;99.90;;;;;;5052307;28;20021;-75
2020/12/23 06:31:48;;;;;;;365.20;211.65;;;6.70;99.90;;;;;;5052221;28;20361;-76
2020/12/23 06:34:16;;;;;;;353.60;202.45;;;6.70;99.90;;;;;;5052428;28;20025;-76
2020/12/23 06:36:43;;;;;;;338.08;196.00;;;6.60;99.90;;;;;;5052181;28;20025;-76
2020/12/23 06:39:23;;;;;;;332.33;189.82;;;6.60;99.90;;;;;;5052092;28;20027;-75
2020/12/23 06:41:59;;;;;;;342.63;194.10;;;6.60;99.90;;;;;;5052013;28;20539;-76
2020/12/23 06:44:26;;;;;;;347.00;199.80;;;6.50;99.90;;;;;;5052008;28;20115;-76
2020/12/23 06:47:01;;;;;;;399.05;236.40;;;6.50;99.90;;;;;;5051987;28;20017;-76
2020/12/23 06:49:43;;;;;;;371.90;224.20;;;6.50;99.90;;;;;;5051836;28;20029;-76
2020/12/23 06:52:22;;;;;;;396.02;246.35;;;6.40;99.90;;;;;;5052197;28;20025;-75
2020/12/23 06:54:54;;;;;;;418.98;260.30;;;6.40;99.90;;;;;;5051979;28;20083;-76
2020/12/23 06:57:37;;;;;;;396.60;250.27;;;6.30;99.90;;;;;;5052000;28;20025;-75
2020/12/23 07:00:04;;;;;;;383.77;246.70;;;6.30;99.90;;;;;;5051921;28;20025;-75
2020/12/23 07:02:40;;;;;;;391.45;256.77;;;6.40;99.90;;;;;;5051089;28;20049;-75
2020/12/23 07:05:06;;;;;;;386.73;242.55;;;6.40;99.90;;;;;;5051706;28;20715;-75
2020/12/23 07:07:43;;;;;;;362.88;230.20;;;6.40;99.90;;;;;;5050284;28;20032;-76
2020/12/23 07:10:23;;;;;;;368.65;230.98;;;6.40;99.90;;;;;;5066693;28;20392;-75
2020/12/23 07:12:54;;;;;;;356.67;222.45;;;6.40;99.90;;;;;;5051869;28;20017;-75
2020/12/23 07:15:33;;;;;;;362.98;222.63;;;6.50;99.90;;;;;;5051529;28;20036;-75
2020/12/23 07:18:12;;;;;;;332.48;202.55;;;6.50;99.90;;;;;;5051460;28;20025;-75
2020/12/23 07:21:12;;;;;;;338.98;208.60;;;6.50;99.90;;;;;;5050284;28;20499;-75
2020/12/23 07:23:40;;;;;;;341.27;216.30;;;6.60;99.90;;;;;;5028377;28;20052;-75
2020/12/23 07:26:08;;;;;;;377.70;247.70;;;6.60;99.90;;;;;;5051481;28;20100;-76
2020/12/23 07:28:37;;;;;;;404.67;271.67;;;6.60;99.90;;;;;;5051580;28;20021;-76
2020/12/23 07:31:04;;;;;;;454.80;228.57;;;6.60;99.90;;;;;;5051817;28;20029;-77
2020/12/23 07:33:31;;;;;;;376.73;229.50;;;6.90;99.90;;;;;;5051546;28;20029;-76
2020/12/23 07:35:58;;;;;;;359.00;227.27;;;6.90;99.90;;;;;;5051245;28;20100;-76
2020/12/23 07:38:27;;;;;;;348.98;222.27;;;6.90;99.90;;;;;;5050877;28;20476;-76
2020/12/23 07:40:53;;;;;;;348.17;213.70;;;6.80;99.90;;;;;;5051055;28;20029;-76
2020/12/23 07:43:20;;;;;;;339.67;210.43;;;6.90;99.90;;;;;;5049515;28;20032;-76
2020/12/23 07:45:47;;;;;;;319.15;205.90;;;6.90;99.90;;;;;;5050156;28;20029;-76
2020/12/23 07:48:18;;;;;;;280.75;178.52;;;7.00;99.90;;;;;;5050148;28;20029;-76
2020/12/23 07:50:45;;;;;;;299.95;181.82;;;7.10;99.90;;;;;;5050593;28;20033;-76
2020/12/23 07:53:18;;;;;;;293.60;175.65;;;7.10;99.90;;;;;;5050500;28;20032;-76
2020/12/23 07:55:48;;;;;;;274.92;172.05;;;7.10;99.90;;;;;;5050894;28;20021;-76
2020/12/23 07:58:15;;;;;;;263.75;164.02;;;7.20;99.90;;;;;;5050632;28;20490;-76
2020/12/23 08:00:46;;;;;;;242.95;155.70;;;7.30;99.90;;;;;;5050437;28;20049;-76
2020/12/23 08:03:13;;;;;;;192.60;128.48;;;7.40;99.90;;;;;;5051074;28;20087;-76
2020/12/23 08:05:40;;;;;;;214.48;136.15;;;7.40;99.90;;;;;;5051078;28;20029;-75
2020/12/23 08:08:06;;;;;;;205.73;127.75;;;7.50;99.90;;;;;;5050043;28;20063;-76
2020/12/23 08:10:33;;;;;;;215.50;134.30;;;7.70;99.90;;;;;;5066177;28;20823;-75
2020/12/23 08:13:01;;;;;;;196.43;124.75;;;7.70;99.90;;;;;;5050606;28;20031;-75
2020/12/23 08:15:27;;;;;;;182.55;115.28;;;7.80;99.90;;;;;;5055018;28;20021;-75
2020/12/23 08:18:01;;;;;;;153.95;96.93;;;7.90;99.90;;;;;;5054722;28;20061;-75
2020/12/23 08:20:27;;;;;;;179.80;109.55;;;8.00;99.90;;;;;;5054686;28;20032;-75
2020/12/23 08:22:53;;;;;;;141.20;86.65;;;8.10;99.90;;;;;;5054425;28;20057;-75
2020/12/23 08:25:20;;;;;;;149.63;94.13;;;8.30;99.90;;;;;;5054552;28;20506;-75
2020/12/23 08:27:50;;;;;;;175.05;106.45;;;8.40;99.90;;;;;;5054472;28;20020;-75
2020/12/23 08:30:19;;;;;;;135.73;85.30;;;8.60;99.90;;;;;;5053608;28;20029;-74
2020/12/23 08:33:02;;;;;;;159.38;95.32;;;8.70;99.90;;;;;;5052912;28;20053;-74
2020/12/23 08:35:30;;;;;;;180.07;104.72;;;9.00;99.90;;;;;;5052285;28;20036;-73
2020/12/23 08:37:56;;;;;;;175.00;111.63;;;9.10;99.90;;;;;;5052893;28;20098;-73
2020/12/23 08:40:22;;;;;;;232.57;158.00;;;9.20;99.90;;;;;;5052852;28;20060;-74
2020/12/23 08:42:59;;;;;;;243.05;172.00;;;9.30;99.90;;;;;;5052737;28;20727;-73
2020/12/23 08:45:26;;;;;;;337.05;244.55;;;9.70;99.90;;;;;;5052702;28;20115;-73
2020/12/23 08:47:53;;;;;;;190.82;120.45;;;10.40;99.90;;;;;;5052628;28;20022;-74
2020/12/23 08:50:21;;;;;;;929.15;647.92;;;10.90;99.90;;;;;;5052535;28;20051;-75
2020/12/23 08:52:48;;;;;;;381.60;266.17;;;11.30;99.90;;;;;;5051967;28;20434;-75
2020/12/23 08:55:18;;;;;;;422.50;278.98;;;11.50;99.90;;;;;;5048398;28;20032;-75
2020/12/23 08:57:45;;;;;;;382.63;257.92;;;11.10;99.90;;;;;;5054064;28;20074;-75
2020/12/23 09:00:17;;;;;;;296.10;193.25;;;10.80;99.90;;;;;;5053161;28;20090;-75
2020/12/23 09:02:45;;;;;;;303.50;198.80;;;10.70;99.90;;;;;;5053507;28;20061;-75
2020/12/23 09:05:26;;;;;;;271.27;173.95;;;10.70;99.90;;;;;;5051906;28;20021;-75
2020/12/23 09:08:09;;;;;;;208.35;136.40;;;10.60;99.90;;;;;;5053924;28;20479;-76
2020/12/23 09:10:37;;;;;;;199.57;128.32;;;10.60;99.90;;;;;;5054267;28;20413;-76
2020/12/23 09:13:13;;;;;;;206.10;132.50;;;10.70;99.90;;;;;;5053637;28;20056;-75
2020/12/23 09:15:40;;;;;;;183.82;122.22;;;10.60;99.90;;;;;;5054103;28;20082;-75
2020/12/23 09:18:11;;;;;;;178.07;119.10;;;10.70;99.90;;;;;;5054185;28;20025;-76
2020/12/23 09:20:41;;;;;;;141.25;96.93;;;10.80;99.90;;;;;;5054156;28;20472;-76
2020/12/23 09:23:09;;;;;;;129.73;88.22;;;10.90;99.90;;;;;;5053860;28;20053;-77
2020/12/23 09:25:36;;;;;;;122.68;85.13;;;11.00;99.90;;;;;;5053266;28;20388;-76
2020/12/23 09:28:13;;;;;;;125.30;83.45;;;11.10;99.90;;;;;;5052793;28;20372;-76
2020/12/23 09:30:42;;;;;;;138.18;91.43;;;11.20;99.90;;;;;;5037911;28;20036;-77
2020/12/23 09:33:12;;;;;;;139.27;97.78;;;11.30;99.90;;;;;;5051811;28;20033;-77
2020/12/23 09:35:39;;;;;;;125.82;86.22;;;11.40;99.90;;;;;;5050903;28;20107;-77
2020/12/23 09:38:23;;;;;;;128.88;90.38;;;11.60;99.90;;;;;;5052642;28;20025;-75
2020/12/23 09:40:51;;;;;;;158.07;106.07;;;11.70;99.90;;;;;;5050873;28;20078;-76
2020/12/23 09:43:26;;;;;;;470.83;280.42;;;11.70;99.90;;;;;;5052516;28;20043;-76
2020/12/23 09:45:53;;;;;;;434.50;250.90;;;11.70;99.90;;;;;;5053031;28;20036;-75
2020/12/23 09:48:21;;;;;;;397.63;265.45;;;11.70;99.90;;;;;;5052954;28;20032;-75
2020/12/23 09:50:47;;;;;;;322.67;204.95;;;11.90;99.90;;;;;;5052971;28;20440;-76
2020/12/23 09:53:13;;;;;;;284.92;184.18;;;11.90;99.90;;;;;;5053209;28;20376;-76
2020/12/23 09:55:42;;;;;;;242.50;157.95;;;12.00;99.90;;;;;;5053169;28;20376;-77
2020/12/23 09:58:09;;;;;;;244.00;157.00;;;12.10;99.90;;;;;;5052024;28;20082;-77
2020/12/23 10:00:35;;;;;;;222.65;152.60;;;12.20;99.90;;;;;;5052181;28;20457;-76
2020/12/23 10:03:01;;;;;;;217.57;144.52;;;12.30;99.90;;;;;;5053555;28;20100;-76
2020/12/23 10:05:27;;;;;;;219.13;147.77;;;12.40;99.90;;;;;;5053244;28;20024;-77
2020/12/23 10:07:53;;;;;;;248.00;170.30;;;12.40;99.90;;;;;;5053726;28;20075;-76
2020/12/23 10:10:20;;;;;;;249.55;165.05;;;12.50;99.90;;;;;;5053144;28;20486;-76
2020/12/23 10:12:46;;;;;;;285.10;196.13;;;12.60;99.90;;;;;;5052905;28;20499;-76
2020/12/23 10:15:12;;;;;;;279.50;195.15;;;12.60;99.90;;;;;;5053609;28;20029;-77
2020/12/23 10:17:37;;;;;;;279.50;190.15;;;12.70;99.90;;;;;;5053164;28;20036;-75
2020/12/23 10:20:04;;;;;;;287.30;202.10;;;12.90;99.90;;;;;;5052457;28;20088;-76
2020/12/23 10:22:30;;;;;;;321.08;221.40;;;12.90;99.90;;;;;;5067663;28;20048;-75
2020/12/23 10:24:56;;;;;;;357.30;253.63;;;12.80;99.90;;;;;;5052197;28;20036;-75
2020/12/23 10:27:22;;;;;;;358.23;249.95;;;12.90;99.90;;;;;;5052164;28;20567;-75
2020/12/23 10:29:48;;;;;;;366.45;254.38;;;12.90;99.90;;;;;;5052051;28;20075;-75
2020/12/23 10:32:14;;;;;;;383.50;265.17;;;13.00;99.90;;;;;;5050853;28;20108;-75
2020/12/23 10:34:40;;;;;;;339.58;230.40;;;13.10;99.90;;;;;;5050518;28;20427;-75
2020/12/23 10:37:06;;;;;;;338.08;223.40;;;13.10;99.90;;;;;;5051382;28;20020;-75
2020/12/23 10:39:32;;;;;;;348.90;222.95;;;13.20;99.90;;;;;;5051311;28;20017;-75
2020/12/23 10:41:58;;;;;;;339.08;213.93;;;13.20;99.90;;;;;;5051584;28;20052;-75
2020/12/23 10:44:24;;;;;;;340.25;212.88;;;13.20;99.90;;;;;;5051818;28;20032;-75
2020/12/23 10:47:08;;;;;;;308.73;192.52;;;13.30;99.90;;;;;;5051706;28;20429;-75
2020/12/23 10:49:34;;;;;;;239.57;161.95;;;13.40;99.90;;;;;;5051481;28;20036;-74
2020/12/23 10:52:00;;;;;;;279.20;177.85;;;13.40;99.90;;;;;;5037573;28;20021;-75
2020/12/23 10:54:29;;;;;;;359.17;210.20;;;13.50;99.90;;;;;;5031958;28;20017;-76
2020/12/23 10:56:56;;;;;;;335.48;202.15;;;13.60;99.90;;;;;;5031736;28;20036;-76
2020/12/23 10:59:23;;;;;;;321.08;195.00;;;13.70;99.90;;;;;;5031900;28;20029;-76
2020/12/23 11:01:56;;;;;;;361.65;212.32;;;13.80;99.90;;;;;;5043791;28;20029;-76
2020/12/23 11:04:22;;;;;;;369.67;219.07;;;13.80;99.90;;;;;;5052027;28;20124;-76
2020/12/23 11:06:52;;;;;;;378.85;232.40;;;13.90;99.90;;;;;;5051442;28;20037;-75
2020/12/23 11:09:18;;;;;;;412.60;241.55;;;14.00;99.90;;;;;;5051141;28;20017;-76
2020/12/23 11:11:51;;;;;;;516.75;326.25;;;14.90;99.90;;;;;;5051245;28;20059;-76
2020/12/23 11:14:18;;;;;;;485.50;294.65;;;14.80;99.90;;;;;;5051265;28;20513;-75
2020/12/23 11:16:51;;;;;;;460.67;290.15;;;15.00;99.90;;;;;;5051363;28;20078;-77
2020/12/23 11:19:21;;;;;;;485.88;309.73;;;15.20;99.90;;;;;;5051499;28;20040;-77
2020/12/23 11:21:47;;;;;;;326.90;195.02;;;15.20;99.90;;;;;;5051270;28;20404;-77
2020/12/23 11:24:13;;;;;;;269.02;166.77;;;15.10;99.90;;;;;;5051235;28;20451;-76
2020/12/23 11:26:39;;;;;;;195.65;123.18;;;15.20;99.90;;;;;;5050878;28;20510;-77
2020/12/23 11:29:05;;;;;;;336.98;181.80;;;15.30;99.90;;;;;;5051237;28;20100;-77
2020/12/23 11:31:32;;;;;;;173.32;127.45;;;15.40;99.90;;;;;;5050035;28;20388;-77
2020/12/23 11:33:58;;;;;;;112.50;76.22;;;15.40;99.90;;;;;;5051200;28;20049;-78
2020/12/23 11:36:24;;;;;;;104.00;73.43;;;15.60;99.90;;;;;;5051478;28;20032;-77
2020/12/23 11:38:50;;;;;;;140.55;90.45;;;15.50;99.90;;;;;;5051541;28;20116;-77
2020/12/23 11:41:16;;;;;;;75.05;53.65;;;15.60;99.50;;;;;;5051099;28;20029;-77
2020/12/23 11:43:42;;;;;;;71.65;50.08;;;15.70;96.10;;;;;;5051356;28;20805;-77
2020/12/23 11:46:09;;;;;;;81.22;53.80;;;15.80;95.90;;;;;;5050988;28;20025;-75
2020/12/23 11:48:35;;;;;;;94.35;63.58;;;16.30;99.90;;;;;;5050233;28;20484;-76
2020/12/23 11:51:02;;;;;;;68.78;51.53;;;16.80;94.40;;;;;;5050503;28;20033;-77
2020/12/23 11:53:28;;;;;;;209.05;146.88;;;16.60;93.60;;;;;;5051111;28;20053;-77
2020/12/23 11:55:54;;;;;;;87.55;56.75;;;16.60;95.30;;;;;;5051039;28;20102;-76
2020/12/23 11:58:20;;;;;;;92.18;68.95;;;16.70;94.40;;;;;;5051137;28;20175;-77
2020/12/23 12:00:46;;;;;;;78.43;50.25;;;16.80;93.70;;;;;;5049033;28;20037;-79
2020/12/23 12:03:12;;;;;;;96.95;71.15;;;16.80;93.00;;;;;;5051048;28;20426;-78
2020/12/23 12:05:38;;;;;;;79.18;56.47;;;16.70;93.50;;;;;;5051142;28;20039;-78
2020/12/23 12:08:07;;;;;;;60.25;43.50;;;17.00;91.40;;;;;;5050185;28;20464;-78
2020/12/23 12:10:33;;;;;;;54.28;36.58;;;16.90;91.00;;;;;;5049896;28;20380;-77
2020/12/23 12:13:00;;;;;;;49.95;37.50;;;16.90;90.70;;;;;;5050141;28;20424;-78
2020/12/23 12:15:26;;;;;;;89.10;66.20;;;17.00;88.60;;;;;;5051058;28;20024;-77
2020/12/23 12:17:52;;;;;;;70.53;45.63;;;16.90;91.00;;;;;;5050963;28;20369;-78
2020/12/23 12:20:19;;;;;;;48.33;35.78;;;17.00;88.10;;;;;;5050817;28;20029;-77
2020/12/23 12:22:48;;;;;;;54.88;39.75;;;17.20;86.00;;;;;;5050787;28;20144;-77